Terminal Aerodrome Forecast
Issued by NWS Caribou, ME

Home | Current Version | Previous Version | Text Only | Print | Product List | Glossary On
Versions: 1 2 3 4 5 6 7 8 9 10 11 12 13 14 15 16
594
FTUS41 KCAR 160555
TAFBGR
TAF
KBGR 160555Z 1606/1706 36005KT P6SM -SN OVC025
      TEMPO 1607/1609 3SM -SN OVC015
     FM161400 VRB03KT P6SM SCT020 BKN040
     FM170300 VRB03KT 4SM -SN SCT020 OVC035=

USA.gov is the U.S. government's official web portal to all federal, state and local government web resources and services.